Time;durP1;ratioP1;P1;durP2;ratioP2;P2;SDS_P1;SDS_P2;PMS_P1;PMS_P2;Temp;Humidity;BMP_temperature;BMP_pressure;BME280_temperature;BME280_humidity;BME280_pressure;Samples;Min_cycle;Max_cycle;Signal;HPM_P1;HPM_P2
2022/06/08 00:02:19;;;;;;;9.50;8.55;;;;;;;;;;5014593;28;20029;-64
2022/06/08 00:04:45;;;;;;;10.20;9.07;;;;;;;;;;5014754;28;20112;-63
2022/06/08 00:07:11;;;;;;;9.90;9.10;;;;;;;;;;5010042;28;20037;-63
2022/06/08 00:09:36;;;;;;;13.75;9.57;;;;;;;;;;5015488;28;20041;-63
2022/06/08 00:12:04;;;;;;;10.50;9.50;;;;;;;;;;5017982;28;20641;-63
2022/06/08 00:14:30;;;;;;;10.15;9.25;;;;;;;;;;5011828;28;20042;-63
2022/06/08 00:16:56;;;;;;;10.63;9.48;;;;;;;;;;5010534;28;20108;-63
2022/06/08 00:19:21;;;;;;;9.52;8.70;;;;;;;;;;5009251;28;20034;-63
2022/06/08 00:21:47;;;;;;;9.38;8.50;;;;;;;;;;5009970;28;20038;-64
2022/06/08 00:24:13;;;;;;;9.93;9.02;;;;;;;;;;5011813;28;20034;-63
2022/06/08 00:26:39;;;;;;;9.88;9.02;;;;;;;;;;5018449;28;20034;-63
2022/06/08 00:29:05;;;;;;;9.55;8.70;;;;;;;;;;5018294;28;20041;-64
2022/06/08 00:31:32;;;;;;;9.88;8.95;;;;;;;;;;5013923;28;20052;-63
2022/06/08 00:33:58;;;;;;;9.10;8.27;;;;;;;;;;5019714;28;20041;-64
2022/06/08 00:36:24;;;;;;;9.32;8.52;;;;;;;;;;5016219;28;20496;-64
2022/06/08 00:38:49;;;;;;;10.90;8.30;;;;;;;;;;5014061;28;20152;-63
2022/06/08 00:41:40;;;;;;;9.88;8.90;;;;;;;;;;5007334;28;20049;-62
2022/06/08 00:44:14;;;;;;;9.25;8.55;;;;;;;;;;5005679;28;20041;-63
2022/06/08 00:46:40;;;;;;;9.60;8.80;;;;;;;;;;5011085;28;20033;-64
2022/06/08 00:49:16;;;;;;;9.50;8.70;;;;;;;;;;5006033;28;20638;-63
2022/06/08 00:51:42;;;;;;;8.68;7.97;;;;;;;;;;5019214;28;20033;-61
2022/06/08 00:54:12;;;;;;;9.27;8.38;;;;;;;;;;5016803;28;20044;-63
2022/06/08 00:56:44;;;;;;;9.82;9.07;;;;;;;;;;5008150;28;20033;-63
2022/06/08 00:59:10;;;;;;;13.10;8.48;;;;;;;;;;5004716;28;20038;-63
2022/06/08 01:01:36;;;;;;;9.32;8.55;;;;;;;;;;5026595;28;20076;-63
2022/06/08 01:04:15;;;;;;;9.77;8.77;;;;;;;;;;5014220;28;20133;-62
2022/06/08 01:06:47;;;;;;;9.88;9.07;;;;;;;;;;5015585;28;20057;-63
2022/06/08 01:09:24;;;;;;;11.00;9.70;;;;;;;;;;5014020;28;20057;-63
2022/06/08 01:11:50;;;;;;;12.02;9.65;;;;;;;;;;5014909;28;20036;-63
2022/06/08 01:14:19;;;;;;;11.60;10.30;;;;;;;;;;5018398;28;20037;-63
2022/06/08 01:17:02;;;;;;;11.63;10.48;;;;;;;;;;5016221;28;20036;-63
2022/06/08 01:19:31;;;;;;;13.10;11.38;;;;;;;;;;5006958;28;20046;-63
2022/06/08 01:22:00;;;;;;;12.35;11.15;;;;;;;;;;5003746;28;20040;-63
2022/06/08 01:24:36;;;;;;;12.80;11.40;;;;;;;;;;5004571;28;20056;-63
2022/06/08 01:27:37;;;;;;;12.60;11.40;;;;;;;;;;5005346;28;20037;-64
2022/06/08 01:30:17;;;;;;;12.57;11.30;;;;;;;;;;4977463;28;20647;-63
2022/06/08 01:33:05;;;;;;;26.60;11.80;;;;;;;;;;5006836;28;20033;-63
2022/06/08 01:35:47;;;;;;;13.57;11.25;;;;;;;;;;5011980;28;20044;-63
2022/06/08 01:38:12;;;;;;;12.85;10.25;;;;;;;;;;5014121;28;20049;-63
2022/06/08 01:40:55;;;;;;;11.75;10.20;;;;;;;;;;5009482;28;20041;-63
2022/06/08 01:43:34;;;;;;;10.68;9.38;;;;;;;;;;5005544;28;20073;-63
2022/06/08 01:46:23;;;;;;;11.85;10.65;;;;;;;;;;5004164;28;20969;-63
2022/06/08 01:49:04;;;;;;;10.82;9.85;;;;;;;;;;5009864;28;20124;-63
2022/06/08 01:52:00;;;;;;;10.80;9.68;;;;;;;;;;5007202;28;20034;-63
2022/06/08 01:55:17;;;;;;;11.45;10.32;;;;;;;;;;5012652;28;20033;-63
2022/06/08 01:57:54;;;;;;;9.95;8.95;;;;;;;;;;4940958;28;20553;-63
2022/06/08 02:00:25;;;;;;;10.07;9.18;;;;;;;;;;4938181;29;20138;-63
2022/06/08 02:03:13;;;;;;;10.35;9.35;;;;;;;;;;4947548;28;20383;-63
2022/06/08 02:06:07;;;;;;;12.75;9.60;;;;;;;;;;4940800;28;20158;-63
2022/06/08 02:08:44;;;;;;;11.07;9.68;;;;;;;;;;4951474;28;20677;-64
2022/06/08 02:11:10;;;;;;;11.68;10.48;;;;;;;;;;4942800;28;20122;-64
2022/06/08 02:13:49;;;;;;;13.50;10.85;;;;;;;;;;4957586;28;20130;-64
2022/06/08 02:16:34;;;;;;;19.67;10.32;;;;;;;;;;4957473;28;20047;-63
2022/06/08 02:19:08;;;;;;;11.30;10.18;;;;;;;;;;4952659;28;20129;-63
2022/06/08 02:21:42;;;;;;;10.82;9.65;;;;;;;;;;4925951;29;20588;-63
2022/06/08 02:24:33;;;;;;;11.02;9.80;;;;;;;;;;4945425;28;20049;-63
2022/06/08 02:27:11;;;;;;;11.52;9.80;;;;;;;;;;4944338;28;20051;-63
2022/06/08 02:29:59;;;;;;;11.65;10.45;;;;;;;;;;4952641;28;20626;-63
2022/06/08 02:35:24;;;;;;;10.52;9.48;;;;;;;;;;5009690;28;20089;-63
2022/06/08 02:37:54;;;;;;;10.20;9.20;;;;;;;;;;5017385;28;20117;-63
2022/06/08 02:40:28;;;;;;;14.50;10.02;;;;;;;;;;5012366;28;20131;-64
2022/06/08 02:43:04;;;;;;;25.30;9.60;;;;;;;;;;4996358;28;20515;-64
2022/06/08 02:45:37;;;;;;;10.70;9.70;;;;;;;;;;5009980;28;20117;-64
2022/06/08 02:48:09;;;;;;;10.95;9.55;;;;;;;;;;5005081;28;20041;-63
2022/06/08 02:50:38;;;;;;;10.35;9.00;;;;;;;;;;5004277;28;20057;-63
2022/06/08 02:53:16;;;;;;;10.43;9.52;;;;;;;;;;5003314;28;20034;-63
2022/06/08 02:56:03;;;;;;;11.70;9.45;;;;;;;;;;5011614;28;20112;-62
2022/06/08 02:58:42;;;;;;;10.15;9.20;;;;;;;;;;5016093;28;20041;-63
2022/06/08 03:01:25;;;;;;;35.05;10.45;;;;;;;;;;5005902;28;20050;-61
2022/06/08 03:03:56;;;;;;;11.40;9.38;;;;;;;;;;5002353;28;20141;-63
2022/06/08 03:06:26;;;;;;;9.23;8.27;;;;;;;;;;5001541;28;20493;-63
2022/06/08 03:08:58;;;;;;;10.60;9.48;;;;;;;;;;5005460;28;20034;-61
2022/06/08 03:11:30;;;;;;;9.75;8.95;;;;;;;;;;5008914;28;20630;-62
2022/06/08 03:14:00;;;;;;;9.88;9.00;;;;;;;;;;5008964;28;20034;-62
2022/06/08 03:16:33;;;;;;;9.80;9.00;;;;;;;;;;5018201;28;20112;-62
2022/06/08 03:19:03;;;;;;;11.60;9.30;;;;;;;;;;5036880;22;20045;-66
2022/06/08 03:21:32;;;;;;;9.27;8.52;;;;;;;;;;5053242;28;20654;-66
2022/06/08 03:23:59;;;;;;;10.07;9.07;;;;;;;;;;5035311;28;20041;-66
2022/06/08 03:26:34;;;;;;;9.75;8.90;;;;;;;;;;5023736;28;20033;-66
2022/06/08 03:29:00;;;;;;;9.45;8.63;;;;;;;;;;5010320;28;20165;-66
2022/06/08 03:31:25;;;;;;;10.45;9.45;;;;;;;;;;5007109;28;20108;-66
2022/06/08 03:33:51;;;;;;;11.55;9.27;;;;;;;;;;5013602;28;20123;-66
2022/06/08 03:36:17;;;;;;;10.70;8.77;;;;;;;;;;5012296;28;20037;-65
2022/06/08 03:38:42;;;;;;;10.55;9.20;;;;;;;;;;5016010;28;20033;-66
2022/06/08 03:41:10;;;;;;;10.55;9.60;;;;;;;;;;5017936;28;20041;-66
2022/06/08 03:43:37;;;;;;;10.18;9.27;;;;;;;;;;5014267;28;20118;-66
2022/06/08 03:46:05;;;;;;;9.68;8.73;;;;;;;;;;5011704;28;20733;-66
2022/06/08 03:48:31;;;;;;;9.90;9.00;;;;;;;;;;5014330;28;20065;-66
2022/06/08 03:50:58;;;;;;;9.50;8.75;;;;;;;;;;5005677;28;20362;-66
2022/06/08 03:53:31;;;;;;;10.10;9.05;;;;;;;;;;5010139;28;20431;-66
2022/06/08 03:56:00;;;;;;;9.13;8.38;;;;;;;;;;5010338;28;20049;-67
2022/06/08 03:58:26;;;;;;;15.13;8.68;;;;;;;;;;5017251;28;20045;-65
2022/06/08 04:00:53;;;;;;;12.93;8.95;;;;;;;;;;5027291;28;20488;-66
2022/06/08 04:03:19;;;;;;;9.40;8.55;;;;;;;;;;5017971;28;20112;-66
2022/06/08 04:05:45;;;;;;;9.80;8.82;;;;;;;;;;5015185;28;20551;-66
2022/06/08 04:08:17;;;;;;;8.90;8.00;;;;;;;;;;5019231;28;20112;-66
2022/06/08 04:10:50;;;;;;;8.77;7.88;;;;;;;;;;5020434;28;20488;-66
2022/06/08 04:13:18;;;;;;;8.90;8.10;;;;;;;;;;5031437;28;20045;-66
2022/06/08 04:15:44;;;;;;;8.77;8.07;;;;;;;;;;5022951;28;20115;-66
2022/06/08 04:18:22;;;;;;;12.48;8.23;;;;;;;;;;5012505;28;20030;-66
2022/06/08 04:20:55;;;;;;;8.07;7.40;;;;;;;;;;5010440;28;20630;-66
2022/06/08 04:23:22;;;;;;;7.75;7.05;;;;;;;;;;5015386;28;20034;-66
2022/06/08 04:25:52;;;;;;;8.03;7.23;;;;;;;;;;5025800;28;20038;-66
2022/06/08 04:28:19;;;;;;;7.60;6.85;;;;;;;;;;5016476;28;20068;-66
2022/06/08 04:30:49;;;;;;;8.13;7.40;;;;;;;;;;5011633;28;20112;-66
2022/06/08 04:33:15;;;;;;;10.40;7.43;;;;;;;;;;5018077;28;20040;-67
2022/06/08 04:35:42;;;;;;;8.55;7.68;;;;;;;;;;5027564;28;20100;-65
2022/06/08 04:38:09;;;;;;;8.35;7.72;;;;;;;;;;5027476;28;20126;-65
2022/06/08 04:40:38;;;;;;;8.18;7.53;;;;;;;;;;5019125;28;20048;-66
2022/06/08 04:43:05;;;;;;;8.50;7.70;;;;;;;;;;5037287;28;20080;-65
2022/06/08 04:45:32;;;;;;;7.85;7.15;;;;;;;;;;5010071;28;20073;-65
2022/06/08 04:47:58;;;;;;;8.02;7.43;;;;;;;;;;5011554;28;20038;-66
2022/06/08 04:50:25;;;;;;;7.68;7.07;;;;;;;;;;5009483;28;20112;-66
2022/06/08 04:52:51;;;;;;;8.10;7.50;;;;;;;;;;5018363;28;20033;-66
2022/06/08 04:55:17;;;;;;;9.13;7.80;;;;;;;;;;5021375;28;20545;-66
2022/06/08 04:57:45;;;;;;;8.80;8.07;;;;;;;;;;5010612;28;20045;-66
2022/06/08 05:00:17;;;;;;;9.23;8.52;;;;;;;;;;5019308;28;20033;-66
2022/06/08 05:02:48;;;;;;;9.75;8.13;;;;;;;;;;5018989;28;20030;-66
2022/06/08 05:05:24;;;;;;;8.93;8.20;;;;;;;;;;5017422;28;20041;-66
2022/06/08 05:07:51;;;;;;;9.70;8.73;;;;;;;;;;5033456;28;20041;-66
2022/06/08 05:10:20;;;;;;;9.13;8.23;;;;;;;;;;5032165;28;20472;-66
2022/06/08 05:12:46;;;;;;;8.65;7.90;;;;;;;;;;5017748;28;20044;-66
2022/06/08 05:15:16;;;;;;;8.80;8.00;;;;;;;;;;5015959;28;20044;-66
2022/06/08 05:17:42;;;;;;;;;;;;;;;;;;5018184;28;20115;-66
2022/06/08 05:20:09;;;;;;;8.88;7.93;;;;;;;;;;5020584;28;19917;-66
2022/06/08 05:22:37;;;;;;;9.23;8.43;;;;;;;;;;5019974;28;20081;-66
2022/06/08 05:25:07;;;;;;;9.20;8.40;;;;;;;;;;5014550;28;20042;-67
2022/06/08 05:27:34;;;;;;;;;;;;;;;;;;5017934;28;20033;-66
2022/06/08 05:30:01;;;;;;;8.43;7.72;;;;;;;;;;5021450;28;20507;-66
2022/06/08 05:32:28;;;;;;;14.38;7.93;;;;;;;;;;5013075;28;20026;-66
2022/06/08 05:34:54;;;;;;;8.68;7.82;;;;;;;;;;5016064;28;20060;-66
2022/06/08 05:37:20;;;;;;;8.48;7.63;;;;;;;;;;5020208;28;20033;-66
2022/06/08 05:39:47;;;;;;;9.20;7.47;;;;;;;;;;5015484;28;20737;-68
2022/06/08 05:42:12;;;;;;;10.05;7.30;;;;;;;;;;5021198;28;20033;-66
2022/06/08 05:44:41;;;;;;;8.70;7.88;;;;;;;;;;5020299;28;20124;-66
2022/06/08 05:47:07;;;;;;;8.02;7.40;;;;;;;;;;5016598;28;20120;-67
2022/06/08 05:49:33;;;;;;;8.10;7.40;;;;;;;;;;5015853;28;20106;-66
2022/06/08 05:52:01;;;;;;;7.90;7.20;;;;;;;;;;5019364;28;20462;-66
2022/06/08 05:54:32;;;;;;;7.95;7.18;;;;;;;;;;5012393;28;20167;-66
2022/06/08 05:56:58;;;;;;;7.70;6.80;;;;;;;;;;5011346;28;20073;-66
2022/06/08 05:59:30;;;;;;;7.40;6.80;;;;;;;;;;5020977;28;20048;-66
2022/06/08 06:01:55;;;;;;;7.57;6.93;;;;;;;;;;5016838;28;20037;-66
2022/06/08 06:04:22;;;;;;;7.60;7.00;;;;;;;;;;5018723;28;20113;-67
2022/06/08 06:06:50;;;;;;;8.57;7.43;;;;;;;;;;5016310;28;20037;-66
2022/06/08 06:09:19;;;;;;;7.68;7.13;;;;;;;;;;5016043;28;20061;-66
2022/06/08 06:11:46;;;;;;;7.68;7.18;;;;;;;;;;5019514;28;20033;-66
2022/06/08 06:14:12;;;;;;;7.88;7.10;;;;;;;;;;5013202;28;20034;-66
2022/06/08 06:16:41;;;;;;;7.93;7.32;;;;;;;;;;5012151;28;20049;-66
2022/06/08 06:19:07;;;;;;;7.72;7.13;;;;;;;;;;5034062;28;20041;-66
2022/06/08 06:21:59;;;;;;;7.90;6.90;;;;;;;;;;5001079;28;20099;-66
2022/06/08 06:24:57;;;;;;;7.28;6.78;;;;;;;;;;5011434;28;20121;-66
2022/06/08 06:27:22;;;;;;;7.13;6.60;;;;;;;;;;5019156;28;20132;-66
2022/06/08 06:30:13;;;;;;;8.63;6.68;;;;;;;;;;5006369;28;20044;-66
2022/06/08 06:32:47;;;;;;;8.32;7.53;;;;;;;;;;5030458;28;20037;-66
2022/06/08 06:35:28;;;;;;;6.88;6.38;;;;;;;;;;5017374;28;20037;-66
2022/06/08 06:37:57;;;;;;;10.82;7.45;;;;;;;;;;5036801;28;20033;-66
2022/06/08 06:40:23;;;;;;;6.88;6.47;;;;;;;;;;5020081;28;20041;-66
2022/06/08 06:42:49;;;;;;;6.93;6.35;;;;;;;;;;5011304;28;20033;-66
2022/06/08 06:45:41;;;;;;;6.68;6.18;;;;;;;;;;5018245;28;20041;-66
2022/06/08 06:48:25;;;;;;;7.45;6.25;;;;;;;;;;5007279;28;20115;-66
2022/06/08 06:50:55;;;;;;;7.40;6.30;;;;;;;;;;5007614;28;20504;-66
2022/06/08 06:53:21;;;;;;;8.25;6.18;;;;;;;;;;5009886;28;20029;-66
2022/06/08 06:55:52;;;;;;;7.10;6.60;;;;;;;;;;5028782;28;20121;-66
2022/06/08 06:58:24;;;;;;;7.82;6.30;;;;;;;;;;5020896;28;20046;-66
2022/06/08 07:00:51;;;;;;;6.97;6.38;;;;;;;;;;5031178;28;20037;-66
2022/06/08 07:03:17;;;;;;;7.07;6.40;;;;;;;;;;5015120;28;20053;-66
2022/06/08 07:05:45;;;;;;;6.78;6.28;;;;;;;;;;5016329;28;20103;-66
2022/06/08 07:08:12;;;;;;;6.97;6.15;;;;;;;;;;5012123;28;20802;-66
2022/06/08 07:10:38;;;;;;;6.90;6.35;;;;;;;;;;5013334;28;20175;-66
2022/06/08 07:13:05;;;;;;;7.00;6.30;;;;;;;;;;5013452;28;20500;-66
2022/06/08 07:15:31;;;;;;;7.70;6.30;;;;;;;;;;5031920;28;20037;-66
2022/06/08 07:17:57;;;;;;;7.22;6.00;;;;;;;;;;5014616;28;20037;-66
2022/06/08 07:20:26;;;;;;;6.63;6.03;;;;;;;;;;5013539;28;20424;-66
2022/06/08 07:22:53;;;;;;;7.75;6.20;;;;;;;;;;5016242;28;20036;-66
2022/06/08 07:25:19;;;;;;;7.13;6.07;;;;;;;;;;5019809;28;20037;-66
2022/06/08 07:27:45;;;;;;;6.57;5.90;;;;;;;;;;5017354;28;20683;-66
2022/06/08 07:30:11;;;;;;;6.13;5.72;;;;;;;;;;5013180;28;20159;-66
2022/06/08 07:32:37;;;;;;;6.47;5.93;;;;;;;;;;5016428;28;20485;-66
2022/06/08 07:35:05;;;;;;;7.05;6.40;;;;;;;;;;5017161;28;20084;-67
2022/06/08 07:37:31;;;;;;;7.03;6.50;;;;;;;;;;5012432;28;21762;-66
2022/06/08 07:39:56;;;;;;;7.00;6.50;;;;;;;;;;5015011;28;20063;-66
2022/06/08 07:42:22;;;;;;;7.60;6.82;;;;;;;;;;5017254;28;20069;-66
2022/06/08 07:44:48;;;;;;;6.22;5.82;;;;;;;;;;5016593;28;20412;-66
2022/06/08 07:47:14;;;;;;;7.72;7.03;;;;;;;;;;5011111;28;20108;-66
2022/06/08 07:49:41;;;;;;;6.68;6.05;;;;;;;;;;5019492;28;20612;-66
2022/06/08 07:52:16;;;;;;;6.60;6.00;;;;;;;;;;5012830;28;20033;-66
2022/06/08 07:54:42;;;;;;;8.07;6.30;;;;;;;;;;5012691;28;20038;-66
2022/06/08 07:57:22;;;;;;;7.43;6.72;;;;;;;;;;5011887;28;20567;-66
2022/06/08 07:59:48;;;;;;;6.85;6.10;;;;;;;;;;5018882;28;20034;-66
2022/06/08 08:02:14;;;;;;;7.07;6.03;;;;;;;;;;5011622;28;20401;-66
2022/06/08 08:04:40;;;;;;;7.80;6.18;;;;;;;;;;5011653;28;20036;-66
2022/06/08 08:07:08;;;;;;;7.75;6.82;;;;;;;;;;5018420;28;20034;-66
2022/06/08 08:09:34;;;;;;;6.70;6.07;;;;;;;;;;5019355;28;20082;-66
2022/06/08 08:12:01;;;;;;;6.60;6.00;;;;;;;;;;5017149;28;20490;-66
2022/06/08 08:14:27;;;;;;;6.18;5.60;;;;;;;;;;5009905;28;20488;-66
2022/06/08 08:16:53;;;;;;;6.15;5.60;;;;;;;;;;5015579;28;20033;-67
2022/06/08 08:19:21;;;;;;;7.78;6.50;;;;;;;;;;5016127;28;20520;-66
2022/06/08 08:21:48;;;;;;;6.95;5.85;;;;;;;;;;5018047;28;20025;-66
2022/06/08 08:24:14;;;;;;;7.30;5.75;;;;;;;;;;5016813;28;20033;-66
2022/06/08 08:26:40;;;;;;;9.70;5.93;;;;;;;;;;5014957;28;20047;-67
2022/06/08 08:29:06;;;;;;;6.20;5.70;;;;;;;;;;5012492;28;20029;-67
2022/06/08 08:31:32;;;;;;;6.05;5.40;;;;;;;;;;5014911;28;20366;-67
2022/06/08 08:33:58;;;;;;;6.30;5.72;;;;;;;;;;5014757;28;20037;-67
2022/06/08 08:36:24;;;;;;;6.05;5.47;;;;;;;;;;5013773;28;20144;-66
2022/06/08 08:38:50;;;;;;;6.72;5.40;;;;;;;;;;5018216;28;20029;-67
2022/06/08 08:44:20;;;;;;;6.13;5.57;;;;;;;;;;5018644;28;20041;-67
2022/06/08 08:46:59;;;;;;;6.05;5.25;;;;;;;;;;5017467;28;20052;-67
2022/06/08 08:49:26;;;;;;;;;;;;;;;;;;5022870;28;20388;-67
2022/06/08 08:52:01;;;;;;;6.38;5.80;;;;;;;;;;5016014;28;20012;-67
2022/06/08 08:54:38;;;;;;;6.40;5.80;;;;;;;;;;5020284;28;20037;-67
2022/06/08 08:57:30;;;;;;;7.20;5.18;;;;;;;;;;5024080;28;20029;-66
2022/06/08 08:59:56;;;;;;;5.85;5.07;;;;;;;;;;5013576;28;20052;-67
2022/06/08 09:05:20;;;;;;;6.05;5.50;;;;;;;;;;4999710;28;20030;-68
2022/06/08 09:07:47;;;;;;;7.25;5.32;;;;;;;;;;5007127;28;20546;-67
2022/06/08 09:10:21;;;;;;;7.80;5.30;;;;;;;;;;5010442;28;20125;-67
2022/06/08 09:12:48;;;;;;;7.15;5.10;;;;;;;;;;5015912;28;20067;-67
2022/06/08 09:15:21;;;;;;;5.32;4.93;;;;;;;;;;5015651;28;20488;-66
2022/06/08 09:17:56;;;;;;;6.93;4.50;;;;;;;;;;5016648;28;20116;-66
2022/06/08 09:20:35;;;;;;;6.22;4.60;;;;;;;;;;4975154;22;1374653;-63
2022/06/08 09:23:33;;;;;;;;;;;;;;;;;;5016078;28;20042;-63
2022/06/08 09:26:10;;;;;;;6.55;5.28;;;;;;;;;;5004620;28;19920;-63
2022/06/08 09:28:37;;;;;;;5.28;4.75;;;;;;;;;;4997889;28;20049;-63
2022/06/08 09:31:02;;;;;;;5.53;4.70;;;;;;;;;;4987511;28;20057;-63
2022/06/08 09:33:37;;;;;;;4.55;4.22;;;;;;;;;;4992296;28;20030;-63
2022/06/08 09:36:22;;;;;;;9.20;5.00;;;;;;;;;;4977852;28;20798;-63
2022/06/08 09:38:48;;;;;;;6.43;5.32;;;;;;;;;;4988092;28;20034;-63
2022/06/08 09:41:24;;;;;;;5.00;4.57;;;;;;;;;;4989352;28;20448;-63
2022/06/08 09:44:05;;;;;;;5.40;4.43;;;;;;;;;;4987328;28;20142;-63
2022/06/08 09:53:19;;;;;;;5.57;4.40;;;;;;;;;;4986090;28;20041;-63
2022/06/08 09:55:56;;;;;;;4.50;4.20;;;;;;;;;;4985618;28;20101;-60
2022/06/08 09:58:36;;;;;;;5.05;4.47;;;;;;;;;;4987084;28;20715;-61
2022/06/08 10:01:10;;;;;;;4.78;4.40;;;;;;;;;;4985038;28;20104;-60
2022/06/08 10:03:59;;;;;;;6.72;4.55;;;;;;;;;;4993991;28;20050;-61
2022/06/08 10:06:34;;;;;;;4.68;4.30;;;;;;;;;;5002250;28;20161;-63
2022/06/08 10:09:15;;;;;;;5.30;4.82;;;;;;;;;;4998583;28;20075;-63
2022/06/08 10:12:22;;;;;;;4.90;4.50;;;;;;;;;;4993812;28;20026;-63
2022/06/08 10:15:15;;;;;;;5.07;4.20;;;;;;;;;;4994919;28;20034;-62
2022/06/08 10:17:49;;;;;;;6.53;4.90;;;;;;;;;;4994498;28;20301;-62
2022/06/08 10:20:20;;;;;;;6.68;4.32;;;;;;;;;;4988599;28;20030;-62
2022/06/08 10:22:49;;;;;;;6.22;4.57;;;;;;;;;;4995988;28;20519;-62
2022/06/08 10:25:40;;;;;;;4.82;4.40;;;;;;;;;;5002981;28;20040;-62
2022/06/08 10:28:12;;;;;;;6.75;5.00;;;;;;;;;;4988689;28;20041;-62
2022/06/08 10:31:06;;;;;;;5.38;4.97;;;;;;;;;;4993355;28;20061;-60
2022/06/08 10:33:40;;;;;;;5.78;4.68;;;;;;;;;;4994205;28;20042;-62
2022/06/08 10:36:10;;;;;;;6.63;4.50;;;;;;;;;;4992999;28;20030;-62
2022/06/08 10:38:42;;;;;;;5.50;5.00;;;;;;;;;;4988533;28;20050;-62
2022/06/08 10:43:55;;;;;;;5.18;4.45;;;;;;;;;;4993951;28;20054;-63
2022/06/08 10:46:37;;;;;;;6.40;4.70;;;;;;;;;;4994549;28;20564;-63
2022/06/08 10:49:03;;;;;;;7.25;4.55;;;;;;;;;;4984814;28;20704;-63
2022/06/08 10:51:35;;;;;;;4.43;4.10;;;;;;;;;;4986922;28;20061;-63
2022/06/08 10:56:52;;;;;;;4.93;4.50;;;;;;;;;;4990506;28;20457;-63
2022/06/08 10:59:22;;;;;;;4.40;4.00;;;;;;;;;;4992209;28;20034;-63
2022/06/08 11:01:53;;;;;;;4.43;3.95;;;;;;;;;;4995406;28;20076;-63
2022/06/08 11:04:32;;;;;;;4.30;3.92;;;;;;;;;;4982509;28;20034;-63
2022/06/08 11:07:13;;;;;;;4.20;3.90;;;;;;;;;;4991597;28;20050;-63
2022/06/08 11:09:44;;;;;;;4.47;4.07;;;;;;;;;;4990524;28;20039;-62
2022/06/08 11:12:10;;;;;;;4.55;4.15;;;;;;;;;;4991793;28;20556;-62
2022/06/08 11:14:48;;;;;;;4.80;4.40;;;;;;;;;;4971713;28;20129;-63
2022/06/08 11:17:19;;;;;;;4.53;4.18;;;;;;;;;;5005497;28;20149;-63
2022/06/08 11:19:46;;;;;;;4.97;4.07;;;;;;;;;;4990454;28;20029;-62
2022/06/08 11:22:25;;;;;;;4.43;4.13;;;;;;;;;;4986919;28;20041;-62
2022/06/08 11:24:57;;;;;;;5.60;4.68;;;;;;;;;;4998349;28;20374;-62
2022/06/08 11:27:37;;;;;;;6.72;4.72;;;;;;;;;;4990880;28;20042;-63
2022/06/08 11:30:26;;;;;;;5.20;4.70;;;;;;;;;;4992691;28;20491;-62
2022/06/08 11:32:51;;;;;;;5.45;4.88;;;;;;;;;;4992288;28;20026;-62
2022/06/08 11:36:09;;;;;;;7.22;4.90;;;;;;;;;;4994257;28;20395;-63
2022/06/08 11:38:52;;;;;;;5.93;5.00;;;;;;;;;;5001393;28;20539;-62
2022/06/08 11:41:21;;;;;;;5.20;4.80;;;;;;;;;;4991127;28;20042;-62
2022/06/08 11:43:49;;;;;;;5.78;5.28;;;;;;;;;;4981253;28;20030;-63
2022/06/08 11:46:30;;;;;;;5.97;4.90;;;;;;;;;;4984110;28;20037;-63
2022/06/08 11:48:56;;;;;;;5.53;4.50;;;;;;;;;;4984647;28;20073;-63
2022/06/08 11:51:29;;;;;;;5.35;4.85;;;;;;;;;;4991269;28;20065;-63
2022/06/08 11:53:58;;;;;;;5.63;4.90;;;;;;;;;;4993543;28;20074;-63
2022/06/08 11:56:29;;;;;;;5.40;4.90;;;;;;;;;;4993978;28;20045;-63
2022/06/08 11:59:00;;;;;;;5.40;4.90;;;;;;;;;;4993655;28;20042;-63
2022/06/08 12:01:30;;;;;;;5.85;5.10;;;;;;;;;;4992425;28;20535;-63
2022/06/08 12:04:25;;;;;;;5.20;4.70;;;;;;;;;;4988659;28;20037;-62
2022/06/08 12:06:53;;;;;;;5.40;4.90;;;;;;;;;;4987777;28;20477;-63
2022/06/08 12:09:24;;;;;;;5.40;4.90;;;;;;;;;;4994228;28;20045;-63
2022/06/08 12:11:57;;;;;;;5.20;4.80;;;;;;;;;;4991543;28;20038;-63
2022/06/08 12:14:35;;;;;;;4.63;4.32;;;;;;;;;;4997445;28;20034;-62
2022/06/08 12:17:08;;;;;;;5.15;4.65;;;;;;;;;;4994782;28;20042;-63
2022/06/08 12:19:44;;;;;;;5.50;5.00;;;;;;;;;;5002471;28;20033;-63
2022/06/08 12:22:21;;;;;;;5.05;4.70;;;;;;;;;;4996289;28;20789;-63
2022/06/08 12:25:05;;;;;;;5.30;4.93;;;;;;;;;;4987140;28;20033;-63
2022/06/08 12:27:42;;;;;;;5.80;5.10;;;;;;;;;;4995813;28;20048;-62
2022/06/08 12:30:22;;;;;;;5.30;4.80;;;;;;;;;;4997760;28;20042;-62
2022/06/08 12:32:55;;;;;;;5.60;5.10;;;;;;;;;;4995958;28;20473;-63
2022/06/08 12:35:24;;;;;;;5.65;5.25;;;;;;;;;;4993616;28;20041;-63
2022/06/08 12:38:10;;;;;;;5.22;4.82;;;;;;;;;;5002144;28;20378;-63
2022/06/08 12:40:36;;;;;;;5.30;4.90;;;;;;;;;;4997880;28;20377;-62
2022/06/08 12:43:12;;;;;;;5.15;4.72;;;;;;;;;;4989117;28;20041;-62
2022/06/08 12:45:42;;;;;;;5.40;4.90;;;;;;;;;;4996766;28;20025;-62
2022/06/08 12:48:40;;;;;;;5.22;4.82;;;;;;;;;;4993173;28;20037;-62
2022/06/08 12:51:32;;;;;;;5.25;4.60;;;;;;;;;;4991911;28;20041;-62
2022/06/08 12:54:05;;;;;;;5.47;4.97;;;;;;;;;;4997517;28;20046;-63
2022/06/08 12:56:31;;;;;;;5.07;4.68;;;;;;;;;;5000596;28;20038;-61
2022/06/08 12:58:57;;;;;;;6.65;5.18;;;;;;;;;;4985862;28;20044;-61
2022/06/08 13:01:27;;;;;;;5.13;4.78;;;;;;;;;;4983577;28;20031;-61
2022/06/08 13:03:54;;;;;;;5.50;4.97;;;;;;;;;;4983488;28;20484;-61
2022/06/08 13:06:20;;;;;;;5.80;5.30;;;;;;;;;;4983467;28;20574;-61
2022/06/08 13:08:48;;;;;;;5.43;4.93;;;;;;;;;;4988653;28;20061;-61
2022/06/08 13:11:21;;;;;;;5.95;5.55;;;;;;;;;;4991148;28;20493;-61
2022/06/08 13:13:51;;;;;;;5.93;5.30;;;;;;;;;;4988763;28;20088;-62
2022/06/08 13:16:25;;;;;;;5.80;5.37;;;;;;;;;;4990650;28;20125;-61
2022/06/08 13:18:52;;;;;;;5.85;5.25;;;;;;;;;;4991707;28;20301;-61
2022/06/08 13:21:19;;;;;;;5.70;5.20;;;;;;;;;;4993407;28;20058;-61
2022/06/08 13:23:44;;;;;;;5.97;5.30;;;;;;;;;;4995581;28;20041;-61
2022/06/08 13:26:16;;;;;;;5.82;5.32;;;;;;;;;;4993931;28;20038;-61
2022/06/08 13:28:41;;;;;;;5.60;5.20;;;;;;;;;;4987375;28;20034;-61
2022/06/08 13:31:09;;;;;;;5.90;5.40;;;;;;;;;;4989128;28;20038;-61
2022/06/08 13:36:25;;;;;;;5.60;5.20;;;;;;;;;;4985213;28;20065;-61
2022/06/08 13:38:58;;;;;;;5.95;5.45;;;;;;;;;;4990332;28;20038;-61
2022/06/08 13:41:23;;;;;;;6.88;5.50;;;;;;;;;;4994751;28;20034;-61
2022/06/08 13:43:49;;;;;;;5.95;5.45;;;;;;;;;;4993439;28;20046;-60
2022/06/08 13:46:29;;;;;;;5.50;5.10;;;;;;;;;;4988373;28;20168;-61
2022/06/08 13:48:58;;;;;;;5.75;5.30;;;;;;;;;;4991665;28;20037;-61
2022/06/08 13:51:26;;;;;;;5.53;5.10;;;;;;;;;;4990018;28;20038;-61
2022/06/08 13:53:52;;;;;;;5.30;4.82;;;;;;;;;;4991771;28;20041;-62
2022/06/08 13:56:20;;;;;;;5.25;4.72;;;;;;;;;;4985751;28;20038;-61
2022/06/08 13:58:46;;;;;;;6.68;5.15;;;;;;;;;;4985226;28;20540;-61
2022/06/08 14:01:32;;;;;;;5.60;5.03;;;;;;;;;;4993848;28;20681;-62
2022/06/08 14:03:59;;;;;;;4.93;4.40;;;;;;;;;;4987231;28;20438;-61
2022/06/08 14:14:50;;;;;;;5.10;4.70;;;;;;;;;;4993165;28;20034;-61
2022/06/08 14:17:18;;;;;;;5.90;4.80;;;;;;;;;;4993673;28;20044;-60
2022/06/08 14:19:47;;;;;;;6.13;5.45;;;;;;;;;;4984039;28;20038;-61
2022/06/08 14:22:20;;;;;;;7.68;6.00;;;;;;;;;;4984959;28;20034;-61
2022/06/08 14:24:59;;;;;;;5.82;5.43;;;;;;;;;;4993516;28;20037;-61
2022/06/08 14:27:26;;;;;;;5.90;5.50;;;;;;;;;;4991609;28;20065;-61
2022/06/08 14:29:53;;;;;;;6.85;5.15;;;;;;;;;;4995442;28;20034;-61
2022/06/08 14:32:33;;;;;;;5.82;5.25;;;;;;;;;;4995979;28;20022;-61
2022/06/08 14:35:00;;;;;;;5.50;5.00;;;;;;;;;;4989635;28;20030;-61
2022/06/08 14:37:25;;;;;;;7.63;5.57;;;;;;;;;;4992156;28;20500;-61
2022/06/08 14:39:52;;;;;;;5.53;5.10;;;;;;;;;;4999136;28;20397;-61
2022/06/08 14:42:18;;;;;;;5.13;4.72;;;;;;;;;;4993088;28;20030;-61
2022/06/08 14:44:44;;;;;;;5.75;5.13;;;;;;;;;;4994337;28;20062;-61
2022/06/08 14:47:20;;;;;;;8.52;5.85;;;;;;;;;;4994801;28;20445;-61
2022/06/08 14:49:46;;;;;;;5.32;4.93;;;;;;;;;;4993037;28;20725;-61
2022/06/08 14:52:15;;;;;;;5.60;5.18;;;;;;;;;;4998918;28;20021;-60
2022/06/08 14:54:41;;;;;;;5.72;5.22;;;;;;;;;;4992271;28;20037;-61
2022/06/08 14:57:20;;;;;;;7.47;5.20;;;;;;;;;;4994581;28;20076;-61
2022/06/08 14:59:45;;;;;;;8.32;5.07;;;;;;;;;;4992908;28;20113;-61
2022/06/08 15:02:19;;;;;;;6.13;5.10;;;;;;;;;;4993952;28;20567;-60
2022/06/08 15:04:46;;;;;;;5.43;4.97;;;;;;;;;;4991104;28;20548;-61
2022/06/08 15:07:11;;;;;;;6.22;5.05;;;;;;;;;;4995762;28;20025;-61
2022/06/08 15:09:37;;;;;;;6.00;4.65;;;;;;;;;;4994934;28;20108;-61
2022/06/08 15:12:04;;;;;;;5.53;5.03;;;;;;;;;;4986385;28;20038;-61
2022/06/08 15:14:36;;;;;;;5.50;5.00;;;;;;;;;;4992998;28;20081;-62
2022/06/08 15:17:12;;;;;;;5.80;5.30;;;;;;;;;;4995055;28;20068;-62
2022/06/08 15:19:42;;;;;;;5.90;5.25;;;;;;;;;;5017562;22;20132;-67
2022/06/08 15:22:10;;;;;;;5.40;5.00;;;;;;;;;;5055494;28;20025;-65
2022/06/08 15:24:36;;;;;;;8.20;5.30;;;;;;;;;;5035823;28;20400;-66
2022/06/08 15:27:11;;;;;;;5.68;5.28;;;;;;;;;;5028707;28;20041;-66
2022/06/08 15:29:37;;;;;;;5.72;5.22;;;;;;;;;;5027869;28;20032;-65
2022/06/08 15:32:03;;;;;;;5.47;4.97;;;;;;;;;;5026396;28;20037;-66
2022/06/08 15:34:32;;;;;;;5.97;5.00;;;;;;;;;;5026553;28;20052;-66
2022/06/08 15:37:01;;;;;;;5.80;5.30;;;;;;;;;;5042534;28;20084;-64
2022/06/08 15:39:30;;;;;;;5.10;4.70;;;;;;;;;;5019531;28;23810;-63
2022/06/08 15:41:57;;;;;;;9.45;5.28;;;;;;;;;;5018397;28;20065;-66